Bookmark and Share
Track history (hours):
 

Oceanographic research ship USCGC Polar Star (USA)

Detailed information on ship capabilities available from University of Delaware's Ocean Information Center and ARCUS's ALIAS (Arctic Logistics Information and Support) project.

Last reported at 2014-Mar-21 17:30 UTC. Time now 2014-Apr-20 00:38 UTC.
Position N 47°35' W 122°21'.
Warning: this ship's position is 29 days out of date.

Type: Military. MMSI: 367255000.

NotesDate/timePositionNaut miles runAvg speedWind from/ knotsBaromVisibWave heightAir tempDewpointWater temp
2014-Mar-21 17:30N 47°35' W 122°21'3 2.9
2014-Mar-21 16:33N 47°37' W 122°24'10 9.6
2014-Mar-21 15:34N 47°46' W 122°27'6 6.3
2014-Mar-21 14:34N 47°52' W 122°25'1 0.5
2014-Mar-21 13:33N 47°52' W 122°24'1 1.5
2014-Mar-21 12:34N 47°51' W 122°25'0 0.2
2014-Mar-21 11:34N 47°51' W 122°26'2 1.7
2014-Mar-21 10:34N 47°52' W 122°24'2 1.7
2014-Mar-21 09:33N 47°51' W 122°26'2 1.6
2014-Mar-21 08:33N 47°52' W 122°24'1 1.4
2014-Mar-21 07:34N 47°51' W 122°26'1 0.5
2014-Mar-21 06:33N 47°52' W 122°25'0 0.1
2014-Mar-21 05:34N 47°52' W 122°25'0 0.3
2014-Mar-21 04:33N 47°52' W 122°25'1 0.8
2014-Mar-21 03:33N 47°51' W 122°26'2 1.7
2014-Mar-21 02:33N 47°52' W 122°24'2 1.6
2014-Mar-21 01:34N 47°51' W 122°26'1 0.9
2014-Mar-21 00:33N 47°52' W 122°25'0 0.4
2014-Mar-20 23:33N 47°52' W 122°25'1 0.7
2014-Mar-20 22:33N 47°51' W 122°25'3 2.5
2014-Mar-20 21:33N 47°52' W 122°28'8 7.6
2014-Mar-20 20:33N 47°58' W 122°36'8 7.6
2014-Mar-20 19:31N 48°05' W 122°40'7 6.8
2014-Mar-20 18:33N 48°10' W 122°47'6 6.5
2014-Mar-20 17:33N 48°11' W 122°56'8 8.1
2014-Mar-20 16:32N 48°12' W 123°08'9 9.6
2014-Mar-20 15:33N 48°13' W 123°22'  

Dump ship's entire track history

sailing weather and tide predictions

USCGC Polar Star — NBTM — position and weather